Majesty of the Seas — C6FZ8 — position and weather

sailwx.info

Track history (hours):
 
Tides and Currents Weather Stations Pressure Air Temp Water Temp Dewpoint Dewpoint Depression Visibility Wind Speed Wind Dir Waves Ship Positions

Majesty of the Seas (Bahamas)

Last reported at 2020-Aug-28 20:10 UTC. Time now 2020-Sep-18 07:13 UTC.
Position N 36°46' E 000°29'.
Warning: this ship's position is 20 days out of date.

Length 268 m; draft 7.7 m.

Type: Ship. MMSI: 311734000.

Date/timePositionNaut miles runAvg speedWind from/ knotsBaromVisibWave heightAir tempDewpointWater temp
2020-Aug-28 20:10N 36°46' E 000°29'9113.6
2020-Aug-28 13:30N 36°29' W 001°22'814.9
2020-Aug-28 12:59N 36°27' W 001°31'1515.0
2020-Aug-28 12:00N 36°25' W 001°49'6414.3
2020-Aug-28 07:30N 36°14' W 003°08'713.9
2020-Aug-28 07:00N 36°12' W 003°16'2114.3
2020-Aug-28 05:30N 36°09' W 003°42'1515.3
2020-Aug-28 04:30N 36°07' W 004°01'1615.6
2020-Aug-28 03:30N 36°04' W 004°20'2914.6
2020-Aug-28 01:30N 36°01' W 004°56'5614.0
2020-Aug-27 21:30N 35°54' W 006°05'2113.9
2020-Aug-27 20:00N 35°57' W 006°30'1414.1
2020-Aug-27 19:00N 36°02' W 006°46'1413.8
2020-Aug-27 18:00N 36°06' W 007°03'713.3
2020-Aug-27 17:30N 36°08' W 007°11'2713.4
2020-Aug-27 15:30N 36°14' W 007°43'2713.7
2020-Aug-27 13:30N 36°21' W 008°16'11111.7
2020-Aug-27 04:00N 37°45' W 009°48'2113.8
2020-Aug-27 02:31N 38°05' W 009°55'2114.0
2020-Aug-27 01:01N 38°25' W 010°01'713.6
2020-Aug-27 00:29N 38°32' W 010°03'4713.4
2020-Aug-26 21:00N 39°19' W 010°06'1313.2
2020-Aug-26 20:00N 39°32' W 010°06'  
2020-Aug-24 09:30N 49°55' W 003°06'713.3
2020-Aug-24 08:59N 49°57' W 002°56'613.6
2020-Aug-24 08:30N 49°59' W 002°47'11115.9
2020-Aug-24 01:30N 50°29' E 000°01'5313.2
2020-Aug-23 21:30N 50°57' E 001°11'816.3
2020-Aug-23 21:00N 51°03' E 001°19'4 7.1
2020-Aug-23 20:28N 51°07' E 001°20'  
2020-Aug-21 05:11N 51°07' E 001°20'10 4.7
2020-Aug-21 03:00N 51°03' E 001°35'9 8.7
2020-Aug-21 02:00N 50°56' E 001°26'611.1
2020-Aug-21 01:30N 50°51' E 001°24'13 8.6
2020-Aug-21 00:00N 50°39' E 001°14'14 9.4
2020-Aug-20 22:29N 50°31' E 000°56'19 9.6
2020-Aug-20 20:31N 50°26' E 000°27'9 9.3
2020-Aug-20 19:30N 50°24' E 000°13'23 7.8
2020-Aug-20 16:31N 50°18' W 000°23'34 9.7
2020-Aug-20 13:01N 50°43' W 000°59'7 7.0
2020-Aug-20 11:57N 50°49' W 001°06'0 0.0
2020-Aug-20 11:00N 50°49' W 001°06'0 0.0
2020-Aug-20 10:30N 50°49' W 001°06'0 0.0
2020-Aug-20 08:30N 50°49' W 001°06'0 0.0
2020-Aug-20 07:00N 50°49' W 001°06'0 0.0
2020-Aug-20 05:00N 50°49' W 001°06'0 0.0
2020-Aug-20 03:00N 50°49' W 001°06'0 0.0
2020-Aug-20 02:30N 50°49' W 001°06'0 0.0
2020-Aug-19 22:00N 50°49' W 001°06'0 0.0
2020-Aug-19 14:00N 50°49' W 001°06'0 0.0
2020-Aug-19 11:00N 50°49' W 001°06'0 0.0
2020-Aug-19 08:30N 50°49' W 001°06'0 0.0
2020-Aug-19 07:30N 50°49' W 001°06'0 0.0
2020-Aug-19 07:00N 50°49' W 001°06'0 0.0
2020-Aug-19 03:00N 50°49' W 001°06'0 0.0
2020-Aug-19 02:00N 50°49' W 001°06'0 0.0
2020-Aug-19 01:30N 50°49' W 001°06'0 0.0
2020-Aug-19 00:30N 50°49' W 001°06'0 0.0
2020-Aug-19 00:00N 50°49' W 001°06'0 0.0
2020-Aug-18 23:00N 50°49' W 001°06'  
Track history (hours):
 
Tides and Currents Weather Stations Pressure Air Temp Water Temp Dewpoint Dewpoint Depression Visibility Wind Speed Wind Dir Waves Ship Positions

Majesty of the Seas (Bahamas)

Last reported at 2020-Aug-28 20:10 UTC. Time now 2020-Sep-18 07:13 UTC.
Position N 36°46' E 000°29'.
Warning: this ship's position is 20 days out of date.

Length 268 m; draft 7.7 m.

Type: Ship. MMSI: 311734000.

Date/timePositionNaut miles runAvg speedWind from/ knotsBaromVisibWave heightAir tempDewpointWater temp
2020-Aug-28 20:10N 36°46' E 000°29'9113.6
2020-Aug-28 13:30N 36°29' W 001°22'814.9
2020-Aug-28 12:59N 36°27' W 001°31'1515.0
2020-Aug-28 12:00N 36°25' W 001°49'6414.3
2020-Aug-28 07:30N 36°14' W 003°08'713.9
2020-Aug-28 07:00N 36°12' W 003°16'2114.3
2020-Aug-28 05:30N 36°09' W 003°42'1515.3
2020-Aug-28 04:30N 36°07' W 004°01'1615.6
2020-Aug-28 03:30N 36°04' W 004°20'2914.6
2020-Aug-28 01:30N 36°01' W 004°56'5614.0
2020-Aug-27 21:30N 35°54' W 006°05'2113.9
2020-Aug-27 20:00N 35°57' W 006°30'1414.1
2020-Aug-27 19:00N 36°02' W 006°46'1413.8
2020-Aug-27 18:00N 36°06' W 007°03'713.3
2020-Aug-27 17:30N 36°08' W 007°11'2713.4
2020-Aug-27 15:30N 36°14' W 007°43'2713.7
2020-Aug-27 13:30N 36°21' W 008°16'11111.7
2020-Aug-27 04:00N 37°45' W 009°48'2113.8
2020-Aug-27 02:31N 38°05' W 009°55'2114.0
2020-Aug-27 01:01N 38°25' W 010°01'713.6
2020-Aug-27 00:29N 38°32' W 010°03'4713.4
2020-Aug-26 21:00N 39°19' W 010°06'1313.2
2020-Aug-26 20:00N 39°32' W 010°06'  
2020-Aug-24 09:30N 49°55' W 003°06'713.3
2020-Aug-24 08:59N 49°57' W 002°56'613.6
2020-Aug-24 08:30N 49°59' W 002°47'11115.9
2020-Aug-24 01:30N 50°29' E 000°01'5313.2
2020-Aug-23 21:30N 50°57' E 001°11'816.3
2020-Aug-23 21:00N 51°03' E 001°19'4 7.1
2020-Aug-23 20:28N 51°07' E 001°20'  
2020-Aug-21 05:11N 51°07' E 001°20'10 4.7
2020-Aug-21 03:00N 51°03' E 001°35'9 8.7
2020-Aug-21 02:00N 50°56' E 001°26'611.1
2020-Aug-21 01:30N 50°51' E 001°24'13 8.6
2020-Aug-21 00:00N 50°39' E 001°14'14 9.4
2020-Aug-20 22:29N 50°31' E 000°56'19 9.6
2020-Aug-20 20:31N 50°26' E 000°27'9 9.3
2020-Aug-20 19:30N 50°24' E 000°13'23 7.8
2020-Aug-20 16:31N 50°18' W 000°23'34 9.7
2020-Aug-20 13:01N 50°43' W 000°59'7 7.0
2020-Aug-20 11:57N 50°49' W 001°06'0 0.0
2020-Aug-20 11:00N 50°49' W 001°06'0 0.0
2020-Aug-20 10:30N 50°49' W 001°06'0 0.0
2020-Aug-20 08:30N 50°49' W 001°06'0 0.0
2020-Aug-20 07:00N 50°49' W 001°06'0 0.0
2020-Aug-20 05:00N 50°49' W 001°06'0 0.0
2020-Aug-20 03:00N 50°49' W 001°06'0 0.0
2020-Aug-20 02:30N 50°49' W 001°06'0 0.0
2020-Aug-19 22:00N 50°49' W 001°06'0 0.0
2020-Aug-19 14:00N 50°49' W 001°06'0 0.0
2020-Aug-19 11:00N 50°49' W 001°06'0 0.0
2020-Aug-19 08:30N 50°49' W 001°06'0 0.0
2020-Aug-19 07:30N 50°49' W 001°06'0 0.0
2020-Aug-19 07:00N 50°49' W 001°06'0 0.0
2020-Aug-19 03:00N 50°49' W 001°06'0 0.0
2020-Aug-19 02:00N 50°49' W 001°06'0 0.0
2020-Aug-19 01:30N 50°49' W 001°06'0 0.0
2020-Aug-19 00:30N 50°49' W 001°06'0 0.0
2020-Aug-19 00:00N 50°49' W 001°06'0 0.0
2020-Aug-18 23:00N 50°49' W 001°06'  

Dump ship's entire track history